Estación de Coihueco

Ultimos registro cada 15 minutos 87
Estación Fecha / Hora Temperatura Humedad Lluvia Velocidad Dirección Radiación Presion
87 Coihueco 04-05-2026 21:30 12,7 100 0 0 55 0,6 989,5
86 Coihueco 04-05-2026 21:15 12,8 100 0 0 55 0,6 989,6
85 Coihueco 04-05-2026 21:00 12,8 99,9 0 0 55 0,6 989,4
84 Coihueco 04-05-2026 20:45 12,9 99,8 0 0 55 0,6 989,4
83 Coihueco 04-05-2026 20:30 13,1 99,7 0 0 55 0,6 989,4
82 Coihueco 04-05-2026 20:15 13,1 99,4 0 0 55 0,6 989,1
81 Coihueco 04-05-2026 20:00 13,3 99,1 0 0 55 0,6 989,5
80 Coihueco 04-05-2026 19:45 13,3 98,9 0 0 55 0,6 989,1
79 Coihueco 04-05-2026 19:30 13,3 98,8 0 0 55 0,6 989,3
78 Coihueco 04-05-2026 19:15 13,2 98,6 0 0 55 0,6 989,4
77 Coihueco 04-05-2026 19:00 13,4 98,6 0 0 55 0,6 989,4
76 Coihueco 04-05-2026 18:45 13,4 99 0 0 55 0,6 989,5
75 Coihueco 04-05-2026 18:30 13,3 98,9 0 0 55 0,6 989,1
74 Coihueco 04-05-2026 18:15 13,3 98,4 0,2 0 55 0,6 988,9
73 Coihueco 04-05-2026 18:00 13,7 97,5 0 0 55 0,6 989,1
72 Coihueco 04-05-2026 17:45 13,8 97,7 0 0 55 1,9 989,3
71 Coihueco 04-05-2026 17:30 14,1 97,4 0 0 55 4,4 989,1
70 Coihueco 04-05-2026 17:15 14,1 96,6 0 0 55 11,9 989,3
69 Coihueco 04-05-2026 17:00 14,4 95 0 0 55 15,6 989,2
68 Coihueco 04-05-2026 16:45 14,7 93,6 0 0 55 21,9 989,4
67 Coihueco 04-05-2026 16:30 15 91,8 0 0 55 28,1 989,7
66 Coihueco 04-05-2026 16:15 15,1 91,9 0 0 55 44,4 989,6
65 Coihueco 04-05-2026 16:00 15,1 91,7 0 0 55 55,6 989,9
64 Coihueco 04-05-2026 15:45 15,3 90,6 0 0 55 78,1 989,8
63 Coihueco 04-05-2026 15:30 15,6 89,9 0 0 55 108,1 989,9
62 Coihueco 04-05-2026 15:15 15,4 90,6 0 0 55 104,4 989,7
61 Coihueco 04-05-2026 15:00 15,6 88,4 0 0 55 148,1 990,1
60 Coihueco 04-05-2026 14:45 15,5 90,5 0 0,5 55 166,9 989,9
59 Coihueco 04-05-2026 14:30 15,5 89,3 0 0 55 163,1 990,5
58 Coihueco 04-05-2026 14:15 15,1 91,3 0 0 55 160,6 990,5
57 Coihueco 04-05-2026 14:00 14,9 91,3 0 0 55 89,4 990,6
56 Coihueco 04-05-2026 13:45 15 91,2 0 0 55 105,6 990,9
55 Coihueco 04-05-2026 13:30 15 90,8 0 0 55 160,6 991,5
54 Coihueco 04-05-2026 13:15 14,9 92,7 0 0 55 121,9 991,3
53 Coihueco 04-05-2026 13:00 14,7 92,2 0 0,5 55 145,6 991,4
52 Coihueco 04-05-2026 12:45 14,7 92,4 0 0,5 56 204,4 991,5
51 Coihueco 04-05-2026 12:30 14,7 92,7 0 0 58 139,4 991,7
50 Coihueco 04-05-2026 12:15 14,2 93,5 0 0 58 125,6 991,4
49 Coihueco 04-05-2026 12:00 13,9 93,6 0 0 58 96,9 991,7
48 Coihueco 04-05-2026 11:45 13,7 92,9 0 0 58 84,4 992,2
47 Coihueco 04-05-2026 11:30 13,6 91,9 0 0 58 78,1 992,2
46 Coihueco 04-05-2026 11:15 13,5 93,9 0 0 58 69,4 992,4
45 Coihueco 04-05-2026 11:00 13,3 94,5 0 0 58 43,1 992,3
44 Coihueco 04-05-2026 10:45 13,2 96,4 0 0 58 46,9 991,9
43 Coihueco 04-05-2026 10:30 13,1 97,7 0 0 58 54,4 992,1
42 Coihueco 04-05-2026 10:15 12,8 98,6 0 0 58 56,9 992,1
41 Coihueco 04-05-2026 10:00 12,6 98,5 0 0 58 36,9 991,9
40 Coihueco 04-05-2026 09:45 12,5 98,9 0 0 58 43,1 991,8
39 Coihueco 04-05-2026 09:30 12,2 98,9 0 0 58 28,1 991,8
38 Coihueco 04-05-2026 09:15 12,2 99,3 0 0 58 43,1 991,8
37 Coihueco 04-05-2026 09:00 12,1 99,8 0 0 58 46,9 991,7
36 Coihueco 04-05-2026 08:45 12 100 0 0 58 24,4 991,6
35 Coihueco 04-05-2026 08:30 11,9 100 0,2 0 58 26,9 991,5
34 Coihueco 04-05-2026 08:15 11,8 100 0 0 58 18,1 991,3
33 Coihueco 04-05-2026 08:00 11,7 100 0 0 58 15,6 991,1
32 Coihueco 04-05-2026 07:45 11,7 100 0 0 58 1,9 991
31 Coihueco 04-05-2026 07:30 11,7 100 0 0 58 0,6 991
30 Coihueco 04-05-2026 07:15 11,7 99,8 0 0 58 0,6 991
29 Coihueco 04-05-2026 07:00 11,8 99,7 0 0 58 0,6 991,3
28 Coihueco 04-05-2026 06:45 11,8 99,6 0 0 58 0,6 991,1
27 Coihueco 04-05-2026 06:30 11,8 99,4 0 0 58 0,6 990,9
26 Coihueco 04-05-2026 06:15 11,8 99,3 0 0 58 0,6 990,9
25 Coihueco 04-05-2026 06:00 11,9 99 0 0 58 0,6 990,7
24 Coihueco 04-05-2026 05:45 11,9 98,6 0,2 0,5 66 0,6 990,7
23 Coihueco 04-05-2026 05:30 12 98,4 0 0,5 55 0,6 990,7
22 Coihueco 04-05-2026 05:15 12 97,3 0 0,5 53 0,6 990,7
21 Coihueco 04-05-2026 05:00 12,3 96,1 0 0 56 0,6 990,8
20 Coihueco 04-05-2026 04:45 12,3 94,1 0 0 94 0,6 990,6
19 Coihueco 04-05-2026 04:30 12,2 95,9 0 0 49 0,6 990,4
18 Coihueco 04-05-2026 04:15 12,1 96,9 0 0 0 0,6 990,4
17 Coihueco 04-05-2026 04:00 12,1 97,1 0 0 0 0,6 990,6
16 Coihueco 04-05-2026 03:45 12,2 96,2 0 0 0 0,6 990,8
15 Coihueco 04-05-2026 03:30 12,3 95,4 0 0 0 0,6 990,9
14 Coihueco 04-05-2026 03:15 12,3 94,7 0 0 0 0,6 990,9
13 Coihueco 04-05-2026 03:00 12,5 93 0 0 10 0,6 990,8
12 Coihueco 04-05-2026 02:45 12,5 93,4 0 0 49 0,6 990,6
11 Coihueco 04-05-2026 02:30 12,4 93,7 0 0 49 0,6 990,7
10 Coihueco 04-05-2026 02:15 12,4 94,3 0 0 49 0,6 990,9
9 Coihueco 04-05-2026 02:00 12,5 93,7 0 0 49 0,6 991,1
8 Coihueco 04-05-2026 01:45 12,7 92,2 0 0 49 0,6 991,6
7 Coihueco 04-05-2026 01:30 12,9 91,3 0 0 49 0,6 991,7
6 Coihueco 04-05-2026 01:15 13,1 89,8 0 0,5 49 0,6 991,7
5 Coihueco 04-05-2026 01:00 13,2 88,4 0 1 38 0,6 991,9
4 Coihueco 04-05-2026 00:45 13 88,9 0 1 29 0,6 992,1
3 Coihueco 04-05-2026 00:30 12,8 89,5 0 1,5 42 0,6 992
2 Coihueco 04-05-2026 00:15 12,8 90,9 0 1,5 49 0,6 991,9
1 Coihueco 04-05-2026 00:00 12,7 91,6 0 1,5 46 0,6 992,2